createdAt,value
2022-09-20T00:01:32.202Z,1.77
2022-09-20T00:04:01.007Z,1.08
2022-09-20T00:06:29.943Z,0.85
2022-09-20T00:08:57.371Z,0.90
2022-09-20T00:11:26.795Z,1.00
2022-09-20T00:16:26.941Z,0.85
2022-09-20T00:18:55.391Z,1.08
2022-09-20T00:21:24.979Z,0.90
2022-09-20T00:23:52.435Z,0.82
2022-09-20T00:26:19.399Z,1.10
2022-09-20T00:28:47.060Z,0.60
2022-09-20T00:31:14.715Z,1.08
2022-09-20T00:33:59.931Z,0.70
2022-09-20T00:36:27.432Z,0.88
2022-09-20T00:39:01.913Z,0.70
2022-09-20T00:41:30.370Z,0.80
2022-09-20T00:43:57.377Z,0.90
2022-09-20T00:46:38.622Z,0.88
2022-09-20T00:49:15.070Z,0.73
2022-09-20T00:51:45.145Z,1.02
2022-09-20T00:54:15.881Z,0.85
2022-09-20T00:56:46.103Z,0.93
2022-09-20T00:59:17.314Z,0.73
2022-09-20T01:01:46.515Z,0.88
2022-09-20T01:04:14.451Z,1.55
2022-09-20T01:06:43.181Z,1.23
2022-09-20T01:09:09.788Z,0.77
2022-09-20T01:11:36.463Z,0.52
2022-09-20T01:14:03.404Z,1.13
2022-09-20T01:16:31.150Z,0.88
2022-09-20T01:18:59.089Z,1.00
2022-09-20T01:21:26.448Z,1.05
2022-09-20T01:24:02.970Z,0.90
2022-09-20T01:26:45.593Z,0.82
2022-09-20T01:29:33.710Z,0.70
2022-09-20T01:32:02.747Z,1.08
2022-09-20T01:34:37.113Z,1.10
2022-09-20T01:37:05.424Z,1.30
2022-09-20T01:40:10.873Z,1.35
2022-09-20T01:42:39.362Z,0.82
2022-09-20T01:45:27.162Z,1.05
2022-09-20T01:47:56.663Z,0.95
2022-09-20T01:53:23.855Z,0.85
2022-09-20T01:56:27.549Z,0.75
2022-09-20T01:59:31.986Z,0.85
2022-09-20T02:02:16.588Z,0.68
2022-09-20T02:05:04.553Z,0.55
2022-09-20T02:08:03.410Z,1.05
2022-09-20T02:11:14.138Z,0.65
2022-09-20T02:13:40.546Z,0.90
2022-09-20T02:16:22.547Z,1.08
2022-09-20T02:19:21.742Z,0.63
2022-09-20T02:21:48.158Z,0.55
2022-09-20T02:24:21.219Z,0.98
2022-09-20T02:27:02.218Z,0.82
2022-09-20T02:30:06.472Z,0.82
2022-09-20T02:33:08.569Z,0.73
2022-09-20T02:35:53.779Z,0.45
2022-09-20T02:38:31.063Z,1.10
2022-09-20T02:41:19.510Z,0.65
2022-09-20T02:44:01.732Z,0.75
2022-09-20T02:46:52.560Z,0.88
2022-09-20T02:49:30.461Z,0.90
2022-09-20T02:52:00.655Z,0.73
2022-09-20T02:54:37.852Z,0.70
2022-09-20T02:57:35.819Z,0.80
2022-09-20T03:00:14.813Z,0.88
2022-09-20T03:03:15.311Z,0.47
2022-09-20T03:05:53.158Z,0.60
2022-09-20T03:08:33.742Z,0.73
2022-09-20T03:11:21.442Z,0.93
2022-09-20T03:14:00.853Z,0.80
2022-09-20T03:16:53.639Z,0.73
2022-09-20T03:19:35.747Z,0.70
2022-09-20T03:22:15.785Z,0.85
2022-09-20T03:25:01.214Z,1.27
2022-09-20T03:27:43.717Z,0.57
2022-09-20T03:33:11.740Z,0.35
2022-09-20T03:36:23.107Z,0.52
2022-09-20T03:39:01.789Z,0.88
2022-09-20T03:41:53.123Z,1.00
2022-09-20T03:44:31.884Z,0.77
2022-09-20T03:47:27.534Z,0.82
2022-09-20T03:50:24.942Z,0.88
2022-09-20T03:53:05.201Z,1.15
2022-09-20T03:55:31.733Z,1.15
2022-09-20T03:58:08.172Z,0.80
2022-09-20T04:01:20.203Z,0.82
2022-09-20T04:04:05.233Z,0.85
2022-09-20T04:06:44.330Z,0.93
2022-09-20T04:09:38.072Z,0.70
2022-09-20T04:12:17.178Z,0.77
2022-09-20T04:14:49.263Z,0.80
2022-09-20T04:17:21.965Z,0.80
2022-09-20T04:20:32.052Z,0.93
2022-09-20T04:23:03.694Z,0.52
2022-09-20T04:25:37.069Z,0.82
2022-09-20T04:28:11.482Z,1.17
2022-09-20T04:30:43.845Z,1.27
2022-09-20T04:33:29.983Z,0.82
2022-09-20T04:36:32.687Z,0.77
2022-09-20T04:39:12.105Z,0.63
2022-09-20T04:42:03.983Z,1.17
2022-09-20T04:44:42.501Z,1.25
2022-09-20T04:47:42.805Z,1.15
2022-09-20T04:50:18.021Z,0.88
2022-09-20T04:52:55.133Z,0.95
2022-09-20T04:55:46.239Z,0.80
2022-09-20T04:58:37.634Z,1.08
2022-09-20T05:01:17.018Z,1.13
2022-09-20T05:03:58.899Z,0.90
2022-09-20T05:06:45.217Z,0.75
2022-09-20T05:09:20.605Z,0.75
2022-09-20T05:12:15.036Z,1.10
2022-09-20T05:15:00.205Z,0.60
2022-09-20T05:17:33.484Z,0.50
2022-09-20T05:20:10.003Z,0.82
2022-09-20T05:23:10.111Z,1.02
2022-09-20T05:25:56.339Z,0.85
2022-09-20T05:28:25.526Z,0.85
2022-09-20T05:31:02.510Z,0.80
2022-09-20T05:33:35.475Z,1.02
2022-09-20T05:36:35.779Z,1.25
2022-09-20T05:39:09.791Z,0.98
2022-09-20T05:41:47.970Z,1.25
2022-09-20T05:44:31.022Z,0.93
2022-09-20T05:47:16.295Z,1.23
2022-09-20T05:50:15.124Z,0.88
2022-09-20T05:53:18.597Z,1.55
2022-09-20T05:56:11.224Z,1.35
2022-09-20T05:58:55.542Z,1.63
2022-09-20T06:01:42.939Z,1.17
2022-09-20T06:04:17.560Z,1.15
2022-09-20T06:07:15.100Z,1.55
2022-09-20T06:10:04.801Z,1.42
2022-09-20T06:12:35.617Z,1.85
2022-09-20T06:15:59.311Z,1.10
2022-09-20T06:18:31.371Z,1.42
2022-09-20T06:21:09.829Z,1.52
2022-09-20T06:23:36.744Z,1.75
2022-09-20T06:26:07.825Z,1.63
2022-09-20T06:28:41.880Z,1.92
2022-09-20T06:31:10.109Z,1.55
2022-09-20T06:34:07.475Z,1.27
2022-09-20T06:36:55.491Z,0.90
2022-09-20T06:39:56.550Z,0.82
2022-09-20T06:42:26.932Z,1.35
2022-09-20T06:44:53.733Z,0.95
2022-09-20T06:47:20.232Z,0.85
2022-09-20T06:49:47.675Z,0.98
2022-09-20T06:52:15.780Z,0.85
2022-09-20T06:54:45.750Z,0.88
2022-09-20T06:57:15.079Z,0.98
2022-09-20T07:02:08.328Z,0.80
2022-09-20T07:04:35.203Z,0.90
2022-09-20T07:07:09.451Z,0.90
2022-09-20T07:09:36.489Z,0.70
2022-09-20T07:12:03.183Z,0.90
2022-09-20T07:14:29.748Z,1.35
2022-09-20T07:16:56.241Z,0.77
2022-09-20T07:19:23.337Z,1.73
2022-09-20T07:21:49.891Z,1.00
2022-09-20T07:24:16.404Z,1.05
2022-09-20T07:26:58.322Z,0.90
2022-09-20T07:29:25.657Z,0.63
2022-09-20T07:31:52.256Z,1.17
2022-09-20T07:34:20.242Z,0.88
2022-09-20T07:36:52.902Z,0.57
2022-09-20T07:39:19.366Z,0.60
2022-09-20T07:41:48.500Z,1.02
2022-09-20T07:46:49.285Z,1.20
2022-09-20T07:49:15.837Z,0.77
2022-09-20T07:51:42.574Z,0.77
2022-09-20T07:54:09.183Z,0.73
2022-09-20T07:56:36.169Z,0.70
2022-09-20T07:59:02.649Z,0.80
2022-09-20T08:01:29.425Z,0.75
2022-09-20T08:04:14.526Z,0.40
2022-09-20T08:06:43.427Z,0.75
2022-09-20T08:09:11.456Z,0.95
2022-09-20T08:11:39.482Z,1.10
2022-09-20T08:14:08.820Z,0.45
2022-09-20T08:16:44.796Z,0.52
2022-09-20T08:19:22.766Z,0.90
2022-09-20T08:21:50.740Z,0.57
2022-09-20T08:24:17.236Z,0.82
2022-09-20T08:26:44.112Z,0.80
2022-09-20T08:29:11.580Z,0.93
2022-09-20T08:31:42.268Z,8.60
2022-09-20T08:34:10.787Z,0.85
2022-09-20T08:36:41.223Z,0.52
2022-09-20T08:42:35.723Z,0.85
2022-09-20T08:45:07.337Z,1.05
2022-09-20T08:47:37.047Z,0.60
2022-09-20T08:50:09.969Z,0.47
2022-09-20T08:52:40.012Z,0.43
2022-09-20T08:55:18.820Z,0.52
2022-09-20T08:57:56.427Z,0.50
2022-09-20T09:00:25.998Z,0.60
2022-09-20T09:02:56.095Z,0.50
2022-09-20T09:05:33.143Z,0.60
2022-09-20T09:08:04.712Z,0.93
2022-09-20T09:10:42.545Z,0.77
2022-09-20T09:13:18.016Z,0.55
2022-09-20T09:15:47.280Z,0.38
2022-09-20T09:18:14.512Z,0.60
2022-09-20T09:20:43.304Z,0.43
2022-09-20T09:23:25.176Z,0.70
2022-09-20T09:25:55.497Z,0.32
2022-09-20T09:28:26.698Z,0.40
2022-09-20T09:30:54.116Z,0.50
2022-09-20T09:33:27.931Z,0.57
2022-09-20T09:35:56.000Z,0.50
2022-09-20T09:38:24.722Z,0.57
2022-09-20T09:40:54.588Z,0.43
2022-09-20T09:43:30.098Z,0.63
2022-09-20T09:46:17.449Z,0.50
2022-09-20T09:48:49.701Z,0.47
2022-09-20T09:51:19.239Z,0.60
2022-09-20T09:53:47.750Z,0.40
2022-09-20T09:56:17.973Z,0.55
2022-09-20T09:58:57.515Z,0.43
2022-09-20T10:01:33.416Z,0.47
2022-09-20T10:04:09.163Z,0.50
2022-09-20T10:09:29.612Z,0.38
2022-09-20T10:12:24.625Z,0.32
2022-09-20T10:15:07.048Z,0.65
2022-09-20T10:17:45.286Z,0.65
2022-09-20T10:20:33.616Z,0.68
2022-09-20T10:26:31.917Z,0.50
2022-09-20T10:29:15.630Z,0.73
2022-09-20T10:32:00.943Z,0.30
2022-09-20T10:35:06.062Z,0.45
2022-09-20T10:38:03.417Z,0.90
2022-09-20T10:41:08.513Z,0.70
2022-09-20T10:44:08.787Z,0.30
2022-09-20T10:46:53.694Z,0.65
2022-09-20T10:49:36.622Z,0.55
2022-09-20T10:52:14.717Z,0.65
2022-09-20T10:55:07.756Z,0.60
2022-09-20T10:57:54.808Z,0.80
2022-09-20T11:00:22.561Z,0.45
2022-09-20T11:03:04.540Z,0.40
2022-09-20T11:05:49.064Z,0.60
2022-09-20T11:08:18.950Z,0.45
2022-09-20T11:10:48.235Z,0.40
2022-09-20T11:13:42.521Z,0.90
2022-09-20T11:16:19.565Z,0.32
2022-09-20T11:19:18.766Z,0.35
2022-09-20T11:21:55.015Z,0.43
2022-09-20T11:24:35.153Z,0.30
2022-09-20T11:27:21.747Z,0.60
2022-09-20T11:30:15.979Z,0.50
2022-09-20T11:33:03.568Z,0.40
2022-09-20T11:35:43.348Z,0.40
2022-09-20T11:38:21.973Z,0.32
2022-09-20T11:41:25.815Z,0.30
2022-09-20T11:43:54.210Z,0.30
2022-09-20T11:46:36.311Z,0.40
2022-09-20T11:52:00.327Z,0.43
2022-09-20T11:54:48.210Z,0.30
2022-09-20T11:57:24.531Z,0.98
2022-09-20T12:00:01.623Z,0.32
2022-09-20T12:02:41.653Z,0.43
2022-09-20T12:05:37.923Z,0.50
2022-09-20T12:08:24.922Z,0.60
2022-09-20T12:11:22.463Z,0.35
2022-09-20T12:14:06.724Z,0.57
2022-09-20T12:16:43.966Z,0.80
2022-09-20T12:19:22.970Z,0.30
2022-09-20T12:21:58.946Z,0.40
2022-09-20T12:24:29.247Z,0.55
2022-09-20T12:26:57.502Z,0.50
2022-09-20T12:29:24.126Z,0.35
2022-09-20T12:31:54.868Z,0.43
2022-09-20T12:34:50.646Z,0.35
2022-09-20T12:37:19.759Z,0.30
2022-09-20T12:39:55.530Z,1.20
2022-09-20T12:42:35.108Z,0.47
2022-09-20T12:45:07.247Z,0.50
2022-09-20T12:47:35.577Z,5.00
2022-09-20T12:50:22.673Z,0.80
2022-09-20T12:52:57.521Z,0.50
2022-09-20T12:55:26.981Z,0.60
2022-09-20T12:58:04.941Z,0.70
2022-09-20T13:01:04.689Z,0.65
2022-09-20T13:03:36.846Z,0.77
2022-09-20T13:06:06.490Z,1.00
2022-09-20T13:08:41.397Z,0.70
2022-09-20T13:11:12.085Z,1.30
2022-09-20T13:13:49.247Z,1.10
2022-09-20T13:16:24.338Z,0.73
2022-09-20T13:19:18.703Z,0.93
2022-09-20T13:21:54.354Z,1.08
2022-09-20T13:24:21.137Z,0.60
2022-09-20T13:26:49.152Z,1.10
2022-09-20T13:29:33.541Z,0.70
2022-09-20T13:32:35.972Z,0.70
2022-09-20T13:35:21.507Z,0.50
2022-09-20T13:37:52.662Z,0.52
2022-09-20T13:40:25.291Z,0.40
2022-09-20T13:43:22.265Z,0.65
2022-09-20T13:45:53.891Z,0.30
2022-09-20T13:48:25.628Z,0.45
2022-09-20T13:50:53.731Z,0.30
2022-09-20T13:53:41.183Z,0.35
2022-09-20T13:56:29.823Z,0.20
2022-09-20T13:58:58.973Z,0.30
2022-09-20T14:01:34.311Z,0.40
2022-09-20T14:04:19.213Z,0.20
2022-09-20T14:06:45.922Z,0.30
2022-09-20T14:09:27.079Z,0.50
2022-09-20T14:11:54.010Z,0.30
2022-09-20T14:14:22.341Z,0.50
2022-09-20T14:16:51.263Z,0.32
2022-09-20T14:19:20.816Z,0.30
2022-09-20T14:21:48.022Z,0.85
2022-09-20T14:24:14.680Z,0.50
2022-09-20T14:26:42.651Z,0.43
2022-09-20T14:29:34.244Z,0.43
2022-09-20T14:32:23.090Z,0.25
2022-09-20T14:34:55.902Z,0.30
2022-09-20T14:37:31.530Z,0.40
2022-09-20T14:40:01.146Z,0.30
2022-09-20T14:42:34.595Z,0.43
2022-09-20T14:45:03.439Z,0.47
2022-09-20T14:47:38.455Z,0.32
2022-09-20T14:50:22.890Z,0.32
2022-09-20T14:52:59.859Z,0.30
2022-09-20T14:55:32.677Z,0.40
2022-09-20T14:58:09.483Z,0.30
2022-09-20T15:01:02.030Z,0.60
2022-09-20T15:03:39.051Z,0.40
2022-09-20T15:06:07.092Z,0.40
2022-09-20T15:08:41.714Z,0.30
2022-09-20T15:11:16.653Z,0.47
2022-09-20T15:13:43.362Z,0.50
2022-09-20T15:16:14.979Z,0.50
2022-09-20T15:18:42.794Z,0.52
2022-09-20T15:21:11.302Z,0.65
2022-09-20T15:23:39.239Z,0.47
2022-09-20T15:26:06.164Z,0.50
2022-09-20T15:28:34.212Z,0.40
2022-09-20T15:31:00.727Z,0.30
2022-09-20T15:33:30.161Z,0.43
2022-09-20T15:35:56.790Z,0.40
2022-09-20T15:38:26.686Z,0.30
2022-09-20T15:40:53.893Z,0.50
2022-09-20T15:43:26.988Z,0.50
2022-09-20T15:45:56.031Z,0.50
2022-09-20T15:51:05.646Z,0.20
2022-09-20T15:53:38.287Z,0.30
2022-09-20T15:56:14.414Z,0.30
2022-09-20T15:58:48.136Z,0.80
2022-09-20T16:01:16.674Z,0.40
2022-09-20T16:03:44.544Z,1.38
2022-09-20T16:06:11.571Z,0.50
2022-09-20T16:08:39.773Z,0.43
2022-09-20T16:11:07.933Z,0.43
2022-09-20T16:13:40.434Z,0.50
2022-09-20T16:16:09.101Z,0.52
2022-09-20T16:18:54.948Z,0.32
2022-09-20T16:21:21.876Z,0.22
2022-09-20T16:23:50.365Z,0.30
2022-09-20T16:26:17.944Z,0.30
2022-09-20T16:28:47.495Z,0.38
2022-09-20T16:31:32.774Z,0.30
2022-09-20T16:34:00.207Z,0.50
2022-09-20T16:36:27.752Z,0.77
2022-09-20T16:38:55.934Z,0.50
2022-09-20T16:41:27.279Z,0.32
2022-09-20T16:43:54.574Z,0.55
2022-09-20T16:46:25.395Z,0.52
2022-09-20T16:48:53.615Z,0.52
2022-09-20T16:51:25.917Z,0.50
2022-09-20T16:53:55.715Z,0.43
2022-09-20T16:56:23.778Z,0.70
2022-09-20T16:58:53.650Z,0.45
2022-09-20T17:01:20.525Z,0.52
2022-09-20T17:03:47.583Z,0.52
2022-09-20T17:06:16.147Z,0.55
2022-09-20T17:08:44.690Z,0.47
2022-09-20T17:11:21.596Z,0.52
2022-09-20T17:13:51.280Z,0.45
2022-09-20T17:16:23.033Z,0.55
2022-09-20T17:18:58.140Z,0.40
2022-09-20T17:21:25.918Z,0.57
2022-09-20T17:23:57.413Z,0.50
2022-09-20T17:26:28.593Z,0.52
2022-09-20T17:28:56.444Z,0.88
2022-09-20T17:31:28.614Z,0.45
2022-09-20T17:33:55.707Z,0.52
2022-09-20T17:36:22.169Z,0.75
2022-09-20T17:38:53.842Z,0.60
2022-09-20T17:41:20.909Z,0.60
2022-09-20T17:43:48.559Z,0.82
2022-09-20T17:46:25.806Z,0.95
2022-09-20T17:48:56.906Z,1.33
2022-09-20T17:51:25.763Z,0.93
2022-09-20T17:53:53.186Z,1.13
2022-09-20T17:56:29.372Z,0.90
2022-09-20T17:58:56.799Z,1.23
2022-09-20T18:01:23.870Z,1.13
2022-09-20T18:03:50.471Z,0.95
2022-09-20T18:06:25.175Z,1.38
2022-09-20T18:08:53.639Z,1.15
2022-09-20T18:11:22.595Z,1.40
2022-09-20T18:13:49.036Z,1.42
2022-09-20T18:16:17.291Z,1.10
2022-09-20T18:19:03.071Z,1.27
2022-09-20T18:21:36.969Z,1.33
2022-09-20T18:24:08.688Z,1.20
2022-09-20T18:26:35.922Z,1.55
2022-09-20T18:29:06.759Z,1.50
2022-09-20T18:31:43.137Z,1.45
2022-09-20T18:34:23.546Z,1.33
2022-09-20T18:36:52.554Z,1.30
2022-09-20T18:39:26.292Z,1.58
2022-09-20T18:41:53.411Z,1.33
2022-09-20T18:44:21.507Z,1.25
2022-09-20T18:46:48.675Z,1.35
2022-09-20T18:49:16.686Z,1.30
2022-09-20T18:51:44.161Z,2.03
2022-09-20T18:54:13.153Z,1.65
2022-09-20T18:56:44.283Z,1.55
2022-09-20T18:59:25.180Z,2.20
2022-09-20T19:01:54.988Z,1.40
2022-09-20T19:04:56.917Z,1.52
2022-09-20T19:10:20.279Z,1.33
2022-09-20T19:13:05.024Z,1.23
2022-09-20T19:15:47.131Z,1.42
2022-09-20T19:18:40.528Z,1.83
2022-09-20T19:21:26.786Z,1.40
2022-09-20T19:24:14.553Z,1.63
2022-09-20T19:26:42.144Z,1.42
2022-09-20T19:29:26.799Z,1.73
2022-09-20T19:31:56.153Z,2.00
2022-09-20T19:34:25.720Z,2.15
2022-09-20T19:37:04.292Z,2.13
2022-09-20T19:39:40.131Z,1.95
2022-09-20T19:44:58.343Z,1.73
2022-09-20T19:47:45.678Z,1.75
2022-09-20T19:50:27.910Z,1.88
2022-09-20T19:52:57.792Z,1.90
2022-09-20T19:55:24.788Z,1.95
2022-09-20T19:57:51.650Z,1.88
2022-09-20T20:00:20.581Z,1.77
2022-09-20T20:02:47.963Z,1.83
2022-09-20T20:05:20.056Z,2.15
2022-09-20T20:07:47.592Z,1.85
2022-09-20T20:10:26.066Z,2.28
2022-09-20T20:12:59.261Z,2.40
2022-09-20T20:15:50.977Z,2.40
2022-09-20T20:18:20.741Z,2.40
2022-09-20T20:20:49.249Z,2.83
2022-09-20T20:23:43.951Z,2.17
2022-09-20T20:26:24.246Z,2.58
2022-09-20T20:28:51.979Z,3.38
2022-09-20T20:31:21.884Z,2.75
2022-09-20T20:33:48.951Z,2.33
2022-09-20T20:36:16.557Z,2.60
2022-09-20T20:38:49.296Z,2.28
2022-09-20T20:41:18.386Z,2.90
2022-09-20T20:43:48.304Z,3.60
2022-09-20T20:46:17.625Z,3.45
2022-09-20T20:51:18.993Z,2.67
2022-09-20T20:53:48.476Z,2.95
2022-09-20T20:58:43.410Z,2.40
2022-09-20T21:01:15.595Z,2.40
2022-09-20T21:03:46.295Z,3.47
2022-09-20T21:06:13.173Z,3.40
2022-09-20T21:08:42.353Z,2.90
2022-09-20T21:11:12.917Z,3.20
2022-09-20T21:13:40.266Z,4.18
2022-09-20T21:16:15.538Z,3.85
2022-09-20T21:18:43.211Z,3.35
2022-09-20T21:21:26.656Z,3.65
2022-09-20T21:23:56.053Z,3.10
2022-09-20T21:28:54.355Z,2.42
2022-09-20T21:31:22.374Z,2.80
2022-09-20T21:33:49.366Z,3.25
2022-09-20T21:36:17.710Z,2.55
2022-09-20T21:38:45.337Z,2.70
2022-09-20T21:41:17.770Z,2.55
2022-09-20T21:43:45.800Z,2.28
2022-09-20T21:46:20.252Z,2.55
2022-09-20T21:48:47.855Z,2.58
2022-09-20T21:51:16.111Z,2.38
2022-09-20T21:53:42.650Z,2.72
2022-09-20T21:56:11.662Z,3.08
2022-09-20T21:58:41.563Z,2.67
2022-09-20T22:01:11.701Z,2.42
2022-09-20T22:03:46.728Z,2.58
2022-09-20T22:06:18.059Z,2.53
2022-09-20T22:08:58.200Z,2.65
2022-09-20T22:11:27.090Z,3.08
2022-09-20T22:13:55.063Z,2.17
2022-09-20T22:16:22.941Z,2.45
2022-09-20T22:18:49.789Z,2.65
2022-09-20T22:21:23.476Z,3.47
2022-09-20T22:23:57.274Z,2.40
2022-09-20T22:26:26.202Z,2.20
2022-09-20T22:28:52.824Z,2.55
2022-09-20T22:31:21.897Z,2.63
2022-09-20T22:33:50.985Z,1.83
2022-09-20T22:36:23.009Z,2.63
2022-09-20T22:38:49.737Z,2.05
2022-09-20T22:41:17.998Z,2.03
2022-09-20T22:43:44.956Z,2.08
2022-09-20T22:46:16.455Z,2.10
2022-09-20T22:48:42.897Z,1.90
2022-09-20T22:51:15.000Z,2.08
2022-09-20T22:53:41.844Z,2.25
2022-09-20T22:56:17.092Z,1.98
2022-09-20T22:58:45.711Z,2.25
2022-09-20T23:01:14.043Z,1.77
2022-09-20T23:03:45.478Z,1.55
2022-09-20T23:06:20.931Z,1.85
2022-09-20T23:08:52.414Z,2.40
2022-09-20T23:11:19.427Z,2.63
2022-09-20T23:13:46.557Z,2.10
2022-09-20T23:16:24.830Z,1.75
2022-09-20T23:18:52.681Z,2.30
2022-09-20T23:21:19.283Z,2.22
2022-09-20T23:23:47.539Z,2.53
2022-09-20T23:26:17.121Z,2.58
2022-09-20T23:31:16.145Z,2.45
2022-09-20T23:33:50.168Z,2.25
2022-09-20T23:36:17.333Z,2.35
2022-09-20T23:38:44.427Z,2.58
2022-09-20T23:41:12.959Z,2.80
2022-09-20T23:43:40.681Z,2.75
2022-09-20T23:46:08.124Z,2.78
2022-09-20T23:48:38.048Z,2.75
2022-09-20T23:51:05.934Z,2.65
2022-09-20T23:53:32.682Z,2.72
2022-09-20T23:55:59.126Z,3.10
2022-09-20T23:58:25.725Z,2.80
